Terminal Aerodrome Forecast
Issued by NWS

Home | Current Version | Previous Version | Text Only | Print | Product List | Glossary On
Versions: 1 2 3 4 5 6 7 8 9 10 11 12 13 14 15 16
000
FTUS41 KRNK 241727
TAFBCB
TAF
KBCB 241727Z 2418/2518 26005KT P6SM SCT050
     FM242300 35003KT P6SM SCT050
     FM250600 02005KT 6SM BR OVC025=

USA.gov is the U.S. government's official web portal to all federal, state and local government web resources and services.